Time;durP1;ratioP1;P1;durP2;ratioP2;P2;SDS_P1;SDS_P2;PMS_P1;PMS_P2;Temp;Humidity;BMP_temperature;BMP_pressure;BME280_temperature;BME280_humidity;BME280_pressure;Samples;Min_cycle;Max_cycle;Signal;HPM_P1;HPM_P2
2022/12/07 00:00:55;;;;;;;5.17;3.40;;;;;;;1.55;100.00;96272.38;5040369;28;20212;-77
2022/12/07 00:03:22;;;;;;;5.57;3.90;;;;;;;1.60;100.00;96272.69;5040832;28;20205;-77
2022/12/07 00:05:49;;;;;;;5.33;2.70;;;;;;;1.54;100.00;96286.69;5054106;28;20202;-78
2022/12/07 00:08:16;;;;;;;3.50;2.50;;;;;;;1.49;100.00;96284.56;5037611;28;20235;-78
2022/12/07 00:10:44;;;;;;;3.07;2.50;;;;;;;1.49;100.00;96292.56;5049920;28;20212;-77
2022/12/07 00:13:11;;;;;;;3.47;2.37;;;;;;;1.47;100.00;96289.22;5043283;28;20210;-77
2022/12/07 00:15:38;;;;;;;3.87;2.70;;;;;;;1.50;100.00;96299.53;5047491;28;20204;-78
2022/12/07 00:18:08;;;;;;;5.63;2.90;;;;;;;1.51;100.00;96287.91;5052476;28;20228;-77
2022/12/07 00:20:36;;;;;;;3.60;2.33;;;;;;;1.46;100.00;96284.06;5052338;28;20206;-78
2022/12/07 00:23:03;;;;;;;2.87;2.13;;;;;;;1.49;100.00;96286.41;5050067;28;20207;-78
2022/12/07 00:25:31;;;;;;;3.57;2.20;;;;;;;1.51;100.00;96295.88;5060681;28;20213;-77
2022/12/07 00:28:00;;;;;;;4.67;2.40;;;;;;;1.53;100.00;96293.84;5047832;28;20205;-78
2022/12/07 00:30:27;;;;;;;3.20;2.37;;;;;;;1.56;100.00;96287.34;5043350;28;20212;-77
2022/12/07 00:32:54;;;;;;;3.23;2.40;;;;;;;1.55;100.00;96291.00;5046147;28;20291;-78
2022/12/07 00:35:21;;;;;;;2.97;2.30;;;;;;;1.54;100.00;96289.34;5047036;28;20252;-77
2022/12/07 00:37:48;;;;;;;5.80;2.30;;;;;;;1.53;100.00;96290.38;5071194;28;20260;-78
2022/12/07 00:40:15;;;;;;;3.13;2.50;;;;;;;1.42;100.00;96272.97;5050525;28;20205;-77
2022/12/07 00:42:42;;;;;;;3.57;2.20;;;;;;;1.48;100.00;96287.41;5046640;28;20249;-77
2022/12/07 00:45:11;;;;;;;2.70;2.30;;;;;;;1.47;100.00;96286.56;5046903;28;20225;-77
2022/12/07 00:47:38;;;;;;;3.43;2.40;;;;;;;1.36;100.00;96260.34;5037704;28;20210;-77
2022/12/07 00:50:07;;;;;;;4.03;2.30;;;;;;;1.38;100.00;96269.00;5038293;28;20204;-77
2022/12/07 00:52:34;;;;;;;2.90;2.40;;;;;;;1.42;100.00;96280.13;5043056;28;20197;-77
2022/12/07 00:55:01;;;;;;;3.07;2.43;;;;;;;1.44;100.00;96280.78;5043171;28;20248;-77
2022/12/07 00:57:31;;;;;;;3.30;2.50;;;;;;;1.39;100.00;96265.34;5047700;28;20297;-78
2022/12/07 01:00:00;;;;;;;3.67;2.60;;;;;;;1.47;100.00;96267.13;5037665;28;20206;-77
2022/12/07 01:02:28;;;;;;;4.83;2.67;;;;;;;1.44;100.00;96267.47;5050643;28;20201;-77
2022/12/07 01:04:55;;;;;;;4.13;2.67;;;;;;;1.51;100.00;96277.25;5047808;28;20207;-78
2022/12/07 01:07:22;;;;;;;3.73;2.77;;;;;;;1.50;100.00;96272.09;5066518;28;20205;-78
2022/12/07 01:09:49;;;;;;;4.03;3.07;;;;;;;1.50;100.00;96274.75;5052207;28;20209;-78
2022/12/07 01:12:16;;;;;;;6.17;3.10;;;;;;;1.48;100.00;96269.59;5039029;28;20300;-78
2022/12/07 01:14:43;;;;;;;3.80;2.57;;;;;;;1.52;100.00;96270.94;5071532;28;20270;-78
2022/12/07 01:17:11;;;;;;;4.93;2.90;;;;;;;1.58;100.00;96276.53;5038093;28;20194;-77
2022/12/07 01:19:40;;;;;;;4.17;3.00;;;;;;;1.56;100.00;96275.88;5053470;28;20228;-78
2022/12/07 01:22:07;;;;;;;4.60;3.20;;;;;;;1.61;100.00;96286.84;5054174;28;20206;-78
2022/12/07 01:24:34;;;;;;;4.57;3.30;;;;;;;1.63;100.00;96288.28;5044379;28;20259;-77
2022/12/07 01:27:01;;;;;;;4.03;3.13;;;;;;;1.66;100.00;96287.13;5040408;28;20206;-78
2022/12/07 01:29:28;;;;;;;3.90;3.00;;;;;;;1.68;100.00;96295.78;5051785;28;20263;-77
2022/12/07 01:31:56;;;;;;;4.67;3.30;;;;;;;1.67;100.00;96288.78;5050897;28;20209;-78
2022/12/07 01:34:23;;;;;;;4.50;3.57;;;;;;;1.68;100.00;96285.13;5054883;28;20214;-77
2022/12/07 01:36:52;;;;;;;3.97;3.30;;;;;;;1.70;100.00;96291.09;5055088;28;20208;-78
2022/12/07 01:39:19;;;;;;;4.30;3.03;;;;;;;1.70;100.00;96286.59;5048329;28;20218;-77
2022/12/07 01:41:45;;;;;;;4.90;3.60;;;;;;;1.71;100.00;96287.41;5051610;28;20212;-78
2022/12/07 01:44:21;;;;;;;5.27;3.60;;;;;;;1.73;100.00;96282.75;5055026;28;20201;-77
2022/12/07 01:46:50;;;;;;;5.33;3.50;;;;;;;1.77;100.00;96289.38;5055481;28;20216;-77
2022/12/07 01:49:29;;;;;;;6.13;3.77;;;;;;;1.72;100.00;96278.41;5050522;28;20219;-77
2022/12/07 01:52:02;;;;;;;5.33;3.80;;;;;;;1.71;100.00;96290.91;5053119;28;20223;-77
2022/12/07 01:54:30;;;;;;;4.70;3.43;;;;;;;1.69;100.00;96286.78;5050919;28;20236;-77
2022/12/07 01:56:59;;;;;;;5.40;4.17;;;;;;;1.69;100.00;96282.28;5045751;28;20252;-77
2022/12/07 01:59:26;;;;;;;4.53;3.77;;;;;;;1.69;100.00;96284.13;5042429;28;20201;-77
2022/12/07 02:01:56;;;;;;;5.33;3.33;;;;;;;1.69;100.00;96287.63;5063465;28;20278;-77
2022/12/07 02:04:23;;;;;;;6.00;3.83;;;;;;;1.68;100.00;96285.94;5073334;28;20207;-78
2022/12/07 02:06:52;;;;;;;5.37;3.60;;;;;;;1.70;100.00;96288.44;5048730;28;20198;-77
2022/12/07 02:09:20;;;;;;;5.77;3.80;;;;;;;1.72;100.00;96281.09;5043938;28;20266;-77
2022/12/07 02:11:47;;;;;;;5.03;3.67;;;;;;;1.74;100.00;96284.41;5052282;28;20222;-77
2022/12/07 02:14:14;;;;;;;5.60;4.10;;;;;;;1.76;100.00;96277.91;5047361;28;20225;-78
2022/12/07 02:16:53;;;;;;;5.10;3.50;;;;;;;1.75;100.00;96276.25;5049609;28;20196;-77
2022/12/07 02:19:51;;;;;;;7.07;4.73;;;;;;;1.79;100.00;96279.38;5049614;28;20246;-77
2022/12/07 02:22:38;;;;;;;6.07;4.17;;;;;;;1.85;100.00;96281.34;5038569;28;20213;-77
2022/12/07 02:25:15;;;;;;;4.87;3.77;;;;;;;1.77;100.00;96274.25;5047896;28;20232;-77
2022/12/07 02:27:47;;;;;;;7.40;4.13;;;;;;;1.85;100.00;96276.00;5047008;28;20272;-78
2022/12/07 02:30:19;;;;;;;6.50;4.23;;;;;;;1.84;100.00;96279.69;5049884;28;20226;-77
2022/12/07 02:32:55;;;;;;;5.37;4.20;;;;;;;1.84;100.00;96279.69;5049117;28;20215;-77
2022/12/07 02:35:29;;;;;;;5.73;3.57;;;;;;;1.83;100.00;96278.03;5049619;28;20221;-77
2022/12/07 02:38:08;;;;;;;8.00;4.30;;;;;;;1.90;100.00;96277.13;5068457;28;20204;-77
2022/12/07 02:40:41;;;;;;;4.53;3.70;;;;;;;1.89;100.00;96275.47;5071293;28;20200;-78
2022/12/07 02:43:13;;;;;;;5.33;3.67;;;;;;;1.95;100.00;96271.28;5049369;28;20293;-77
2022/12/07 02:45:45;;;;;;;7.57;3.70;;;;;;;1.96;100.00;96267.59;5052055;28;20205;-77
2022/12/07 02:48:16;;;;;;;6.57;3.90;;;;;;;2.01;100.00;96272.41;5066968;28;20279;-77
2022/12/07 02:50:45;;;;;;;5.40;3.87;;;;;;;2.01;100.00;96264.41;5052068;28;20209;-77
2022/12/07 02:53:31;;;;;;;6.53;3.77;;;;;;;2.03;100.00;96271.22;5051662;28;20235;-77
2022/12/07 02:56:00;;;;;;;4.53;3.50;;;;;;;2.05;100.00;96269.19;5052921;28;20226;-77
2022/12/07 02:58:39;;;;;;;5.43;3.60;;;;;;;2.07;100.00;96269.84;5062242;28;20230;-78
2022/12/07 03:01:21;;;;;;;4.40;3.50;;;;;;;2.06;100.00;96268.19;5043886;28;20279;-77
2022/12/07 03:03:59;;;;;;;4.10;3.33;;;;;;;2.07;100.00;96277.00;5060940;28;20217;-77
2022/12/07 03:06:32;;;;;;;6.00;3.43;;;;;;;2.07;100.00;96269.00;5041255;28;20216;-77
2022/12/07 03:09:13;;;;;;;4.57;3.33;;;;;;;2.06;100.00;96268.19;5047282;28;20220;-77
2022/12/07 03:11:46;;;;;;;4.70;3.50;;;;;;;2.04;100.00;96264.06;5058845;28;20298;-78
2022/12/07 03:14:20;;;;;;;4.73;3.40;;;;;;;2.01;100.00;96259.91;5051026;28;20304;-77
2022/12/07 03:16:55;;;;;;;5.00;3.67;;;;;;;2.03;100.00;96263.22;5063914;28;20221;-77
2022/12/07 03:19:24;;;;;;;4.67;3.40;;;;;;;2.03;100.00;96252.56;5039355;28;20253;-77
2022/12/07 03:21:57;;;;;;;4.90;3.57;;;;;;;2.03;100.00;96251.75;5050735;28;20255;-78
2022/12/07 03:24:28;;;;;;;4.57;3.37;;;;;;;2.00;100.00;96252.09;5050265;28;20210;-77
2022/12/07 03:27:03;;;;;;;4.90;3.50;;;;;;;2.02;100.00;96250.91;5044459;28;20216;-77
2022/12/07 03:29:35;;;;;;;5.17;3.43;;;;;;;2.01;100.00;96243.94;5049327;28;20201;-77
2022/12/07 03:32:09;;;;;;;4.67;3.63;;;;;;;2.01;100.00;96251.91;5070261;28;20212;-77
2022/12/07 03:34:42;;;;;;;4.33;3.33;;;;;;;2.01;100.00;96249.25;5045195;28;20220;-78
2022/12/07 03:37:16;;;;;;;5.10;3.20;;;;;;;1.95;100.00;96239.34;5040855;28;20225;-77
2022/12/07 03:40:00;;;;;;;5.30;3.03;;;;;;;1.96;100.00;96251.63;5049766;28;20214;-77
2022/12/07 03:42:27;;;;;;;4.10;3.13;;;;;;;1.95;100.00;96239.34;5047125;28;20284;-77
2022/12/07 03:44:55;;;;;;;4.33;2.87;;;;;;;1.96;100.00;96251.63;5046275;28;20201;-77
2022/12/07 03:47:30;;;;;;;4.23;3.07;;;;;;;1.93;100.00;96235.19;5067635;28;20201;-77
2022/12/07 03:50:02;;;;;;;3.67;2.97;;;;;;;1.93;100.00;96236.00;5060241;28;20236;-77
2022/12/07 03:52:36;;;;;;;3.53;2.80;;;;;;;1.86;100.00;96240.41;5048850;28;20229;-77
2022/12/07 03:55:11;;;;;;;4.07;3.20;;;;;;;1.82;100.00;96237.25;5050927;28;20259;-78
2022/12/07 03:57:42;;;;;;;4.63;3.43;;;;;;;1.80;100.00;96231.28;5049847;28;20259;-77
2022/12/07 04:00:11;;;;;;;3.97;2.83;;;;;;;1.75;100.00;96230.16;5045584;28;20212;-77
2022/12/07 04:02:43;;;;;;;3.70;2.77;;;;;;;1.70;100.00;96230.69;5047961;28;20199;-77
2022/12/07 04:05:11;;;;;;;3.83;3.10;;;;;;;1.67;100.00;96228.41;5050639;28;20223;-77
2022/12/07 04:07:38;;;;;;;3.90;2.83;;;;;;;1.62;100.00;96220.09;5048972;28;20207;-77
2022/12/07 04:10:07;;;;;;;3.60;2.70;;;;;;;1.56;100.00;96217.34;5049665;28;20232;-78
2022/12/07 04:12:34;;;;;;;3.47;2.80;;;;;;;1.49;100.00;96225.19;5048425;28;20203;-77
2022/12/07 04:15:01;;;;;;;3.67;3.00;;;;;;;1.52;100.00;96227.53;5038961;28;20254;-78
2022/12/07 04:17:28;;;;;;;4.60;3.07;;;;;;;1.39;100.00;96217.44;5051975;28;20205;-77
2022/12/07 04:19:57;;;;;;;9.17;3.13;;;;;;;1.36;100.00;96217.00;5047610;28;20233;-77
2022/12/07 04:22:24;;;;;;;4.90;3.23;;;;;;;1.36;100.00;96228.44;5050141;28;20204;-77
2022/12/07 04:24:51;;;;;;;2.90;2.50;;;;;;;1.32;100.00;96227.16;5051256;28;20204;-78
2022/12/07 04:27:18;;;;;;;4.03;2.87;;;;;;;1.21;100.00;96224.03;5050276;28;20287;-77
2022/12/07 04:29:45;;;;;;;3.40;2.80;;;;;;;1.07;100.00;96215.00;5034862;28;20205;-77
2022/12/07 04:32:12;;;;;;;4.53;3.03;;;;;;;1.01;100.00;96219.19;5051759;28;20197;-78
2022/12/07 04:34:40;;;;;;;4.30;3.13;;;;;;;1.00;100.00;96206.06;5038835;28;20231;-77
2022/12/07 04:37:08;;;;;;;3.97;2.90;;;;;;;1.03;100.00;96208.34;5048768;28;20206;-77
2022/12/07 04:39:35;;;;;;;9.17;7.90;;;;;;;0.96;100.00;96221.53;5046892;28;20208;-77
2022/12/07 04:42:03;;;;;;;5.03;3.17;;;;;;;0.84;100.00;96212.28;5050705;28;20298;-77
2022/12/07 04:44:31;;;;;;;7.43;4.07;;;;;;;0.83;100.00;96223.94;5045417;28;20239;-77
2022/12/07 04:46:59;;;;;;;4.20;3.33;;;;;;;0.75;100.00;96227.44;5058976;28;20240;-77
2022/12/07 04:49:26;;;;;;;4.30;3.27;;;;;;;0.79;100.00;96235.88;5053419;28;20205;-77
2022/12/07 04:51:54;;;;;;;3.83;2.73;;;;;;;0.66;100.00;96215.19;5051539;28;20217;-77
2022/12/07 04:54:22;;;;;;;4.13;3.30;;;;;;;0.72;100.00;96227.78;5042957;28;20193;-78
2022/12/07 04:56:49;;;;;;;3.87;3.10;;;;;;;0.67;100.00;96232.78;5041635;28;20231;-77
2022/12/07 04:59:18;;;;;;;3.77;3.10;;;;;;;0.64;100.00;96233.13;5051829;28;20318;-77
2022/12/07 05:01:45;;;;;;;4.80;3.57;;;;;;;0.60;100.00;96230.97;5069227;28;20199;-77
2022/12/07 05:04:12;;;;;;;5.50;2.77;;;;;;;0.64;100.00;96241.09;5049672;28;20220;-78
2022/12/07 05:06:39;;;;;;;5.10;3.13;;;;;;;0.60;100.00;96228.31;5043161;28;20224;-78
2022/12/07 05:09:06;;;;;;;6.60;4.13;;;;;;;0.65;100.00;96240.09;5052188;28;20239;-78
2022/12/07 05:11:43;;;;;;;3.97;2.83;;;;;;;0.62;100.00;96235.13;5054078;28;20253;-77
2022/12/07 05:14:14;;;;;;;4.27;2.60;;;;;;;0.61;100.00;96241.44;5053385;28;20223;-77
2022/12/07 05:16:43;;;;;;;4.90;2.87;;;;;;;0.53;100.00;96244.13;5049693;28;20480;-78
2022/12/07 05:19:10;;;;;;;6.03;3.53;;;;;;;0.51;100.00;96242.66;5027019;28;20240;-78
2022/12/07 05:21:38;;;;;;;3.90;2.80;;;;;;;0.48;100.00;96242.97;5039041;28;20265;-77
2022/12/07 05:24:06;;;;;;;4.10;3.10;;;;;;;0.53;100.00;96249.44;5033717;28;20271;-78
2022/12/07 05:26:35;;;;;;;4.27;3.20;;;;;;;0.53;100.00;96251.25;5023583;28;20210;-77
2022/12/07 05:29:03;;;;;;;5.53;2.80;;;;;;;0.41;100.00;96239.34;5031471;28;20234;-78
2022/12/07 05:31:30;;;;;;;3.87;2.83;;;;;;;0.46;100.00;96244.97;5034549;28;20313;-78
2022/12/07 05:33:58;;;;;;;4.03;2.67;;;;;;;0.44;100.00;96247.78;5022888;28;20208;-78
2022/12/07 05:36:25;;;;;;;4.93;2.97;;;;;;;0.31;100.00;96245.69;5031903;28;20231;-77
2022/12/07 05:38:52;;;;;;;4.90;3.50;;;;;;;0.27;100.00;96256.78;5034563;28;20258;-77
2022/12/07 05:44:06;;;;;;;3.47;2.97;;;;;;;0.23;100.00;96250.19;5017516;28;20237;-78
2022/12/07 05:46:34;;;;;;;4.83;3.27;;;;;;;0.33;100.00;96251.66;5025910;28;20213;-78
2022/12/07 05:49:01;;;;;;;5.87;3.20;;;;;;;0.31;100.00;96250.16;5026593;28;20212;-77
2022/12/07 05:51:28;;;;;;;4.13;2.97;;;;;;;0.33;100.00;96253.47;5035887;28;20198;-77
2022/12/07 05:53:55;;;;;;;4.47;2.90;;;;;;;0.40;100.00;96250.97;5033278;28;20219;-77
2022/12/07 05:56:24;;;;;;;4.50;2.90;;;;;;;0.51;100.00;96264.69;5034002;28;20233;-77
2022/12/07 06:01:37;;;;;;;4.20;2.80;;;;;;;0.46;100.00;96258.25;5030815;28;20207;-77
2022/12/07 06:04:04;;;;;;;5.83;2.87;;;;;;;0.52;100.00;96260.22;5050088;28;20198;-77
2022/12/07 06:06:31;;;;;;;3.50;2.33;;;;;;;0.56;100.00;96258.91;5038795;28;20253;-78
2022/12/07 06:08:58;;;;;;;4.47;2.87;;;;;;;0.59;100.00;96262.06;5032156;28;20228;-77
2022/12/07 06:14:09;;;;;;;4.00;2.13;;;;;;;0.66;100.00;96248.91;5034679;28;20232;-77
2022/12/07 06:16:38;;;;;;;3.00;2.27;;;;;;;0.68;100.00;96245.06;5033932;28;20222;-77
2022/12/07 06:19:07;;;;;;;3.07;2.20;;;;;;;0.70;100.00;96253.69;5041777;28;20257;-77
2022/12/07 06:21:34;;;;;;;5.83;2.77;;;;;;;0.69;100.00;96254.69;5051261;28;20214;-77
2022/12/07 06:24:02;;;;;;;7.53;4.50;;;;;;;0.69;100.00;96252.03;5051275;28;20208;-77
2022/12/07 06:26:28;;;;;;;12.43;6.60;;;;;;;0.67;100.00;96248.75;5049811;28;20206;-77
2022/12/07 06:28:56;;;;;;;9.87;5.40;;;;;;;0.64;100.00;96254.38;5065286;28;20197;-77
2022/12/07 06:31:23;;;;;;;4.63;3.00;;;;;;;0.59;100.00;96255.91;5046469;28;20247;-77
2022/12/07 06:33:52;;;;;;;4.20;2.83;;;;;;;0.55;100.00;96250.09;5050747;28;20288;-77
2022/12/07 06:36:19;;;;;;;5.07;2.83;;;;;;;0.55;100.00;96251.91;5052656;28;20223;-77
2022/12/07 06:38:46;;;;;;;4.10;3.33;;;;;;;0.43;100.00;96240.00;5052119;28;20286;-77
2022/12/07 06:41:13;;;;;;;4.13;3.17;;;;;;;0.54;100.00;96259.06;5041030;28;20213;-78
2022/12/07 06:43:41;;;;;;;3.23;2.80;;;;;;;0.47;100.00;96236.00;5049061;28;20366;-78
2022/12/07 06:46:09;;;;;;;4.47;3.20;;;;;;;0.57;100.00;96258.72;5042456;28;20199;-78
2022/12/07 06:48:36;;;;;;;4.30;2.70;;;;;;;0.52;100.00;96255.75;5050231;28;20293;-78
2022/12/07 06:51:06;;;;;;;7.13;2.80;;;;;;;0.56;100.00;96259.72;5053134;28;20202;-78
2022/12/07 06:53:33;;;;;;;3.07;2.37;;;;;;;0.62;100.00;96252.88;5042776;28;20209;-78
2022/12/07 06:56:00;;;;;;;3.67;2.20;;;;;;;0.58;100.00;96249.75;5058841;28;20232;-78
2022/12/07 06:58:28;;;;;;;2.77;2.10;;;;;;;0.64;100.00;96249.06;5049002;28;20215;-78
2022/12/07 07:00:55;;;;;;;2.97;2.63;;;;;;;0.71;100.00;96242.06;5047984;28;20205;-77
2022/12/07 07:03:22;;;;;;;3.67;2.17;;;;;;;0.69;100.00;96251.19;5070810;28;20202;-78
2022/12/07 07:05:52;;;;;;;2.53;2.13;;;;;;;0.68;100.00;96239.75;5056839;28;20292;-77
2022/12/07 07:08:21;;;;;;;3.47;2.50;;;;;;;0.61;100.00;96228.16;5052898;28;20208;-77
2022/12/07 07:10:48;;;;;;;4.57;2.47;;;;;;;0.68;100.00;96249.56;5048956;28;20221;-78
2022/12/07 07:13:15;;;;;;;4.33;3.00;;;;;;;0.68;100.00;96254.88;5048637;28;20245;-77
2022/12/07 07:15:42;;;;;;;3.10;2.40;;;;;;;0.61;100.00;96238.78;5046950;28;20213;-77
2022/12/07 07:18:09;;;;;;;5.57;2.40;;;;;;;0.68;100.00;96255.69;5047043;28;20317;-78
2022/12/07 07:20:36;;;;;;;3.80;2.30;;;;;;;0.72;100.00;96261.50;5055841;28;20202;-78
2022/12/07 07:23:03;;;;;;;3.00;2.03;;;;;;;0.80;100.00;96268.59;5042097;28;20209;-78
2022/12/07 07:25:32;;;;;;;3.17;2.10;;;;;;;0.74;100.00;96252.38;5049331;28;20207;-78
2022/12/07 07:28:00;;;;;;;4.00;2.50;;;;;;;0.87;100.00;96265.09;5048515;28;20203;-77
2022/12/07 07:30:27;;;;;;;2.63;2.17;;;;;;;0.82;100.00;96251.50;5037506;28;20299;-77
2022/12/07 07:32:58;;;;;;;4.00;2.90;;;;;;;0.90;100.00;96269.25;5042569;28;20205;-78
2022/12/07 07:35:25;;;;;;;3.10;2.23;;;;;;;0.89;100.00;96267.59;5049963;28;20225;-78
2022/12/07 07:37:52;;;;;;;3.93;2.77;;;;;;;0.85;100.00;96253.00;5066331;28;20209;-77
2022/12/07 07:40:20;;;;;;;3.97;2.60;;;;;;;0.88;100.00;96266.75;5045241;28;20211;-78
2022/12/07 07:42:50;;;;;;;3.60;2.63;;;;;;;0.80;100.00;96252.66;5040663;28;20201;-78
2022/12/07 07:45:17;;;;;;;3.67;2.50;;;;;;;0.89;100.00;96270.25;5040680;28;20261;-77
2022/12/07 07:47:45;;;;;;;3.57;2.63;;;;;;;0.86;100.00;96267.91;5068473;28;20208;-78
2022/12/07 07:50:12;;;;;;;4.67;2.97;;;;;;;0.83;100.00;96273.59;5067157;28;20231;-78
2022/12/07 07:52:39;;;;;;;3.93;3.07;;;;;;;0.79;100.00;96277.59;5058694;28;20201;-77
2022/12/07 07:55:08;;;;;;;5.53;2.77;;;;;;;0.71;100.00;96281.09;5038878;28;20213;-77
2022/12/07 07:57:35;;;;;;;4.67;2.80;;;;;;;0.67;100.00;96277.97;5050328;28;20224;-78
2022/12/07 08:00:04;;;;;;;2.97;2.60;;;;;;;0.66;100.00;96281.63;5054850;28;20249;-78
2022/12/07 08:02:39;;;;;;;4.23;2.83;;;;;;;0.69;100.00;96283.91;5067958;28;20205;-77
2022/12/07 08:05:08;;;;;;;4.80;3.13;;;;;;;0.73;100.00;96279.94;5058024;28;20228;-77
2022/12/07 08:07:35;;;;;;;3.97;2.83;;;;;;;0.67;100.00;96283.28;5047933;28;20252;-78
2022/12/07 08:10:02;;;;;;;4.83;3.27;;;;;;;0.58;100.00;96279.00;5049442;28;20226;-77
2022/12/07 08:12:29;;;;;;;5.37;3.57;;;;;;;0.64;100.00;96282.78;5045150;28;20200;-77
2022/12/07 08:14:56;;;;;;;8.13;4.73;;;;;;;0.69;100.00;96285.75;5049095;28;20290;-78
2022/12/07 08:17:25;;;;;;;6.20;4.70;;;;;;;0.73;100.00;96290.56;5047138;28;20278;-77
2022/12/07 08:19:52;;;;;;;6.60;4.60;;;;;;;0.77;100.00;96290.22;5042929;28;20265;-78
2022/12/07 08:22:19;;;;;;;6.80;4.77;;;;;;;0.77;100.00;96287.56;5036352;28;20301;-77
2022/12/07 08:24:46;;;;;;;5.90;3.80;;;;;;;0.88;100.00;96287.19;5036090;28;20205;-77
2022/12/07 08:27:13;;;;;;;5.73;3.40;;;;;;;0.88;100.00;96288.03;5030360;28;20307;-78
2022/12/07 08:29:40;;;;;;;4.93;3.73;;;;;;;0.85;100.00;96277.72;5033397;28;20202;-77
2022/12/07 08:32:07;;;;;;;3.47;2.90;;;;;;;0.93;100.00;96287.53;5038005;28;20227;-77
2022/12/07 08:34:36;;;;;;;3.97;2.80;;;;;;;0.93;100.00;96288.34;5034156;28;20291;-77
2022/12/07 08:37:03;;;;;;;3.90;2.90;;;;;;;0.94;100.00;96289.16;5034183;28;20228;-77
2022/12/07 08:39:30;;;;;;;3.87;2.70;;;;;;;0.89;100.00;96287.03;5053441;28;20206;-77
2022/12/07 08:41:57;;;;;;;5.50;3.07;;;;;;;0.81;100.00;96287.06;5035331;28;20201;-78
2022/12/07 08:44:25;;;;;;;3.63;2.93;;;;;;;0.72;100.00;96272.97;5030747;28;20218;-78
2022/12/07 08:46:54;;;;;;;4.60;2.90;;;;;;;0.87;100.00;96278.38;5034956;28;20227;-78
2022/12/07 08:49:27;;;;;;;4.57;3.20;;;;;;;0.96;100.00;96287.16;5031529;28;20254;-78
2022/12/07 08:51:56;;;;;;;4.57;3.20;;;;;;;1.10;100.00;96291.78;5031195;28;20298;-78
2022/12/07 08:54:23;;;;;;;4.47;2.77;;;;;;;1.16;100.00;96293.72;5036825;28;20202;-78
2022/12/07 08:56:52;;;;;;;6.13;2.80;;;;;;;1.18;100.00;96283.75;5037560;28;20350;-78
2022/12/07 08:59:21;;;;;;;5.43;3.87;;;;;;;1.22;100.00;96290.38;5053786;28;20209;-78
2022/12/07 09:01:48;;;;;;;6.43;3.27;;;;;;;1.26;100.00;96289.03;5035398;28;20206;-77
2022/12/07 09:04:15;;;;;;;5.07;3.20;;;;;;;1.35;100.00;96280.00;5054431;28;20200;-78
2022/12/07 09:06:44;;;;;;;4.40;2.90;;;;;;;1.49;100.00;96295.22;5036571;28;20211;-77
2022/12/07 09:09:14;;;;;;;5.27;2.60;;;;;;;1.63;100.00;96300.78;5035200;28;20202;-77
2022/12/07 09:11:41;;;;;;;4.97;2.70;;;;;;;1.64;100.00;96299.78;5038225;28;20241;-78
2022/12/07 09:14:08;;;;;;;4.23;3.00;;;;;;;1.63;100.00;96292.78;5053999;28;20244;-77
2022/12/07 09:16:35;;;;;;;4.53;2.50;;;;;;;1.55;100.00;96285.69;5036135;28;20313;-78
2022/12/07 09:19:02;;;;;;;3.43;2.30;;;;;;;1.61;100.00;96294.81;5044519;28;20230;-77
2022/12/07 09:21:29;;;;;;;4.10;2.77;;;;;;;1.67;100.00;96305.59;5054112;28;20205;-78
2022/12/07 09:23:56;;;;;;;4.47;2.90;;;;;;;1.67;100.00;96299.44;5049473;28;20196;-77
2022/12/07 09:26:25;;;;;;;3.37;2.53;;;;;;;1.73;100.00;96299.56;5050800;28;20217;-77
2022/12/07 09:28:52;;;;;;;2.77;2.10;;;;;;;1.66;100.00;96295.09;5046964;28;20195;-77
2022/12/07 09:31:20;;;;;;;3.07;2.40;;;;;;;1.76;100.00;96298.38;5051171;28;20206;-77
2022/12/07 09:33:48;;;;;;;3.57;2.60;;;;;;;1.78;100.00;96291.06;5052068;28;20205;-78
2022/12/07 09:36:16;;;;;;;3.87;2.30;;;;;;;1.81;100.00;96280.84;5049006;28;20198;-77
2022/12/07 09:38:43;;;;;;;3.00;2.43;;;;;;;1.76;100.00;96266.44;5048173;28;20209;-77
2022/12/07 09:41:10;;;;;;;4.00;2.47;;;;;;;1.86;100.00;96281.16;5040322;28;20255;-77
2022/12/07 09:43:41;;;;;;;3.33;2.20;;;;;;;1.92;100.00;96289.44;5047298;28;20198;-77
2022/12/07 09:46:14;;;;;;;3.90;2.27;;;;;;;2.04;100.00;96291.50;5051569;28;20221;-77
2022/12/07 09:48:43;;;;;;;3.80;2.40;;;;;;;2.09;100.00;96282.97;5039269;28;20242;-77
2022/12/07 09:51:16;;;;;;;3.07;2.17;;;;;;;2.17;100.00;96286.41;5051764;28;20198;-77
2022/12/07 09:53:44;;;;;;;3.87;2.00;;;;;;;2.24;100.00;96274.00;5045994;28;20208;-77
2022/12/07 09:56:14;;;;;;;3.33;2.20;;;;;;;2.30;100.00;96282.31;5042739;28;20217;-77
2022/12/07 09:58:43;;;;;;;3.57;1.97;;;;;;;2.36;100.00;96281.59;5048756;28;20278;-77
2022/12/07 10:01:14;;;;;;;3.13;2.50;;;;;;;2.39;100.00;96266.03;5040680;28;20209;-77
2022/12/07 10:03:51;;;;;;;3.13;2.33;;;;;;;2.41;100.00;96273.84;5052828;28;20201;-77
2022/12/07 10:06:18;;;;;;;3.67;2.30;;;;;;;2.53;100.00;96267.91;5047711;28;20213;-77
2022/12/07 10:08:45;;;;;;;2.77;1.90;;;;;;;2.56;100.00;96259.53;5049738;28;20204;-77
2022/12/07 10:11:14;;;;;;;2.80;2.10;;;;;;;2.67;100.00;96263.59;5052285;28;20278;-77
2022/12/07 10:13:45;;;;;;;3.27;2.03;;;;;;;2.69;100.00;96258.91;5051179;28;20293;-78
2022/12/07 10:16:34;;;;;;;4.87;2.53;;;;;;;2.85;100.00;96264.06;5042467;28;20240;-77
2022/12/07 10:19:20;;;;;;;2.20;1.90;;;;;;;2.98;100.00;96258.06;5040017;28;20237;-78
2022/12/07 10:22:08;;;;;;;3.87;2.37;;;;;;;3.12;100.00;96243.06;5070578;28;20197;-77
2022/12/07 10:24:37;;;;;;;3.87;2.37;;;;;;;3.27;100.00;96252.69;5051835;28;20209;-77
2022/12/07 10:27:04;;;;;;;3.17;1.73;;;;;;;3.47;100.00;96252.94;5068154;28;20251;-77
2022/12/07 10:29:37;;;;;;;3.17;2.40;;;;;;;3.39;100.00;96250.38;5050837;28;20300;-77
2022/12/07 10:32:25;;;;;;;4.80;2.23;;;;;;;3.56;100.00;96251.81;5042572;28;20264;-79
2022/12/07 10:35:12;;;;;;;3.33;2.37;;;;;;;3.71;100.00;96247.25;5059568;28;20251;-79
2022/12/07 10:37:41;;;;;;;2.43;1.80;;;;;;;3.75;100.00;96251.16;5048681;28;20236;-80
2022/12/07 10:40:26;;;;;;;4.23;2.20;;;;;;;3.68;99.19;96239.59;5052809;28;20202;-79
2022/12/07 10:43:02;;;;;;;2.70;2.17;;;;;;;3.74;98.37;96244.16;5059488;28;20260;-79
2022/12/07 10:45:30;;;;;;;2.60;1.90;;;;;;;3.67;98.94;96231.78;5052247;28;20213;-80
2022/12/07 10:48:07;;;;;;;4.20;2.23;;;;;;;3.80;100.00;96237.25;5052388;28;20216;-79
2022/12/07 10:50:53;;;;;;;2.83;2.00;;;;;;;3.95;99.32;96235.34;5043160;28;20206;-79
2022/12/07 10:53:42;;;;;;;4.10;2.17;;;;;;;4.01;99.08;96217.69;5052350;28;20224;-79
2022/12/07 10:56:42;;;;;;;3.73;2.17;;;;;;;4.18;98.21;96217.22;5059520;28;20214;-79
2022/12/07 10:59:33;;;;;;;5.10;2.30;;;;;;;4.38;96.93;96212.06;5048921;28;20216;-78
2022/12/07 11:02:16;;;;;;;6.70;1.90;;;;;;;4.41;96.51;96216.19;5053417;28;20209;-80
2022/12/07 11:04:57;;;;;;;4.23;2.47;;;;;;;4.38;96.45;96214.72;5068530;28;20205;-79
2022/12/07 11:07:40;;;;;;;3.27;2.40;;;;;;;4.47;97.33;96215.41;5036952;28;20206;-79
2022/12/07 11:10:18;;;;;;;3.00;2.17;;;;;;;4.34;97.76;96196.59;5050700;28;20263;-79
2022/12/07 11:13:13;;;;;;;4.07;2.30;;;;;;;4.42;97.72;96199.94;5050924;28;20232;-79
2022/12/07 11:15:54;;;;;;;2.57;2.00;;;;;;;4.57;96.17;96206.00;5051235;28;20263;-79
2022/12/07 11:18:32;;;;;;;4.00;2.43;;;;;;;4.76;95.31;96195.63;5042210;28;20237;-80
2022/12/07 11:21:09;;;;;;;3.10;2.70;;;;;;;4.72;94.06;96194.38;5051409;28;20208;-79
2022/12/07 11:23:47;;;;;;;5.03;2.90;;;;;;;4.91;92.79;96191.78;5048108;28;20313;-79
2022/12/07 11:26:23;;;;;;;3.63;2.77;;;;;;;5.04;92.70;96198.22;5045381;28;20210;-79
2022/12/07 11:29:09;;;;;;;5.93;3.07;;;;;;;5.20;91.47;96192.50;5029839;28;20210;-80
2022/12/07 11:31:59;;;;;;;3.83;2.80;;;;;;;5.31;88.94;96184.75;5033394;28;20246;-80
2022/12/07 11:34:40;;;;;;;5.10;3.20;;;;;;;5.48;91.66;96187.03;5024274;28;20237;-80
2022/12/07 11:37:13;;;;;;;4.83;3.63;;;;;;;5.60;90.94;96183.59;5049911;28;20210;-80
2022/12/07 11:39:46;;;;;;;5.87;3.70;;;;;;;6.03;90.84;96183.25;5031798;28;20301;-80
2022/12/07 11:42:18;;;;;;;4.77;3.70;;;;;;;5.76;91.10;96174.34;5045072;28;20210;-80
2022/12/07 11:44:54;;;;;;;5.67;3.60;;;;;;;5.97;90.36;96160.75;5053847;28;20265;-80
2022/12/07 11:47:27;;;;;;;7.10;3.90;;;;;;;5.44;92.31;96156.38;5034190;28;20217;-81
2022/12/07 11:50:04;;;;;;;6.43;4.40;;;;;;;4.90;94.45;96155.38;5042939;28;20219;-80
2022/12/07 11:52:42;;;;;;;6.10;3.80;;;;;;;4.87;97.88;96150.41;5026084;28;20252;-80
2022/12/07 11:55:23;;;;;;;5.63;3.53;;;;;;;4.56;100.00;96148.22;5027656;28;20194;-80
2022/12/07 11:57:56;;;;;;;4.07;2.97;;;;;;;4.48;100.00;96137.69;5014757;28;20257;-80